Schaefferstown, Pennsylvania
Current Conditions -  °F | °C
As of 5:53 PM on Wednesday 26 Nov 2014 (Local Time) from KLNS Reporting Station
Light Snow Light Snow  
Wind Chill: 27°   Ceiling: 1000
Heat Index: 33°   Visibility: 3mi
Dew Point: 31°   Wind: 7mph
Humidity: 92%   Direction: 310°NW
Pressure: 29.93"   Gusts: NA
Location:  40.3°N, 76.29°W
Report Text: KLNS 262253Z 31006KT 3SM -SN BR BKN010 OVC028 01/M01 A2993 RMK AO2 SLP138 P0002 T00061006
Loading
Personal Weather Stations






























Interactive Weather Map New forecast layout! Learn more

10-Day Weather Forecast

Advertisements
Track Severe Weather on mobile